sensor_id;sensor_type;location;lat;lon;timestamp;P1;durP1;ratioP1;P2;durP2;ratioP2
22490;SDS011;11412;50.802;4.350;2024-02-23T00:02:25;5.25;;;0.82;;
22490;SDS011;11412;50.802;4.350;2024-02-23T00:04:50;2.30;;;0.90;;
22490;SDS011;11412;50.802;4.350;2024-02-23T00:07:16;2.00;;;0.90;;
22490;SDS011;11412;50.802;4.350;2024-02-23T00:09:42;3.90;;;0.93;;
22490;SDS011;11412;50.802;4.350;2024-02-23T00:12:07;1.25;;;0.60;;
22490;SDS011;11412;50.802;4.350;2024-02-23T00:14:33;4.40;;;0.63;;
22490;SDS011;11412;50.802;4.350;2024-02-23T00:17:01;0.68;;;0.57;;
22490;SDS011;11412;50.802;4.350;2024-02-23T00:19:27;1.48;;;0.50;;
22490;SDS011;11412;50.802;4.350;2024-02-23T00:21:55;3.97;;;0.77;;
22490;SDS011;11412;50.802;4.350;2024-02-23T00:24:20;3.35;;;0.80;;
22490;SDS011;11412;50.802;4.350;2024-02-23T00:26:46;7.07;;;0.93;;
22490;SDS011;11412;50.802;4.350;2024-02-23T00:29:12;3.70;;;0.70;;
22490;SDS011;11412;50.802;4.350;2024-02-23T00:31:38;5.38;;;0.77;;
22490;SDS011;11412;50.802;4.350;2024-02-23T00:34:07;4.15;;;0.68;;
22490;SDS011;11412;50.802;4.350;2024-02-23T00:36:39;3.33;;;0.70;;
22490;SDS011;11412;50.802;4.350;2024-02-23T00:39:06;2.25;;;0.70;;
22490;SDS011;11412;50.802;4.350;2024-02-23T00:41:32;2.13;;;0.47;;
22490;SDS011;11412;50.802;4.350;2024-02-23T00:44:04;1.73;;;0.50;;
22490;SDS011;11412;50.802;4.350;2024-02-23T00:46:30;1.38;;;0.52;;
22490;SDS011;11412;50.802;4.350;2024-02-23T00:48:56;1.42;;;0.60;;
22490;SDS011;11412;50.802;4.350;2024-02-23T00:51:21;1.83;;;0.60;;
22490;SDS011;11412;50.802;4.350;2024-02-23T00:53:47;2.60;;;0.90;;
22490;SDS011;11412;50.802;4.350;2024-02-23T00:56:13;4.57;;;0.82;;
22490;SDS011;11412;50.802;4.350;2024-02-23T00:58:39;4.05;;;0.90;;
22490;SDS011;11412;50.802;4.350;2024-02-23T01:01:05;3.95;;;0.70;;
22490;SDS011;11412;50.802;4.350;2024-02-23T01:03:31;2.08;;;0.80;;
22490;SDS011;11412;50.802;4.350;2024-02-23T01:05:57;3.33;;;0.80;;
22490;SDS011;11412;50.802;4.350;2024-02-23T01:08:22;2.58;;;0.88;;
22490;SDS011;11412;50.802;4.350;2024-02-23T01:10:48;2.38;;;0.63;;
22490;SDS011;11412;50.802;4.350;2024-02-23T01:13:13;2.58;;;0.70;;
22490;SDS011;11412;50.802;4.350;2024-02-23T01:15:39;4.50;;;0.60;;
22490;SDS011;11412;50.802;4.350;2024-02-23T01:18:06;3.53;;;0.60;;
22490;SDS011;11412;50.802;4.350;2024-02-23T01:20:33;4.80;;;0.70;;
22490;SDS011;11412;50.802;4.350;2024-02-23T01:22:58;3.50;;;1.10;;
22490;SDS011;11412;50.802;4.350;2024-02-23T01:25:24;2.88;;;1.00;;
22490;SDS011;11412;50.802;4.350;2024-02-23T01:27:50;2.50;;;0.88;;
22490;SDS011;11412;50.802;4.350;2024-02-23T01:30:16;3.15;;;0.80;;
22490;SDS011;11412;50.802;4.350;2024-02-23T01:32:42;3.45;;;0.80;;
22490;SDS011;11412;50.802;4.350;2024-02-23T01:35:07;3.50;;;0.80;;
22490;SDS011;11412;50.802;4.350;2024-02-23T01:37:33;3.67;;;0.73;;
22490;SDS011;11412;50.802;4.350;2024-02-23T01:39:59;5.07;;;1.65;;
22490;SDS011;11412;50.802;4.350;2024-02-23T01:42:25;4.55;;;1.10;;
22490;SDS011;11412;50.802;4.350;2024-02-23T01:44:51;3.20;;;1.00;;
22490;SDS011;11412;50.802;4.350;2024-02-23T01:47:18;4.25;;;1.42;;
22490;SDS011;11412;50.802;4.350;2024-02-23T01:49:44;2.55;;;0.52;;
22490;SDS011;11412;50.802;4.350;2024-02-23T01:52:11;1.98;;;0.73;;
22490;SDS011;11412;50.802;4.350;2024-02-23T01:54:38;2.38;;;0.80;;
22490;SDS011;11412;50.802;4.350;2024-02-23T01:57:05;6.47;;;1.13;;
22490;SDS011;11412;50.802;4.350;2024-02-23T01:59:34;4.68;;;1.60;;
22490;SDS011;11412;50.802;4.350;2024-02-23T02:02:04;2.67;;;0.90;;
22490;SDS011;11412;50.802;4.350;2024-02-23T02:04:30;2.38;;;0.70;;
22490;SDS011;11412;50.802;4.350;2024-02-23T02:06:57;4.88;;;0.80;;
22490;SDS011;11412;50.802;4.350;2024-02-23T02:09:24;3.00;;;0.90;;
22490;SDS011;11412;50.802;4.350;2024-02-23T02:11:50;4.55;;;1.40;;
22490;SDS011;11412;50.802;4.350;2024-02-23T02:14:16;5.05;;;1.52;;
22490;SDS011;11412;50.802;4.350;2024-02-23T02:16:42;3.20;;;1.60;;
22490;SDS011;11412;50.802;4.350;2024-02-23T02:19:11;4.28;;;1.50;;
22490;SDS011;11412;50.802;4.350;2024-02-23T02:21:37;6.00;;;1.77;;
22490;SDS011;11412;50.802;4.350;2024-02-23T02:24:03;8.15;;;1.30;;
22490;SDS011;11412;50.802;4.350;2024-02-23T02:26:30;5.55;;;1.65;;
22490;SDS011;11412;50.802;4.350;2024-02-23T02:28:56;5.90;;;1.63;;
22490;SDS011;11412;50.802;4.350;2024-02-23T02:31:22;6.53;;;1.13;;
22490;SDS011;11412;50.802;4.350;2024-02-23T02:33:47;5.70;;;1.50;;
22490;SDS011;11412;50.802;4.350;2024-02-23T02:36:13;6.50;;;2.22;;
22490;SDS011;11412;50.802;4.350;2024-02-23T02:38:39;9.05;;;2.20;;
22490;SDS011;11412;50.802;4.350;2024-02-23T02:41:04;5.88;;;2.10;;
22490;SDS011;11412;50.802;4.350;2024-02-23T02:43:30;5.90;;;2.25;;
22490;SDS011;11412;50.802;4.350;2024-02-23T02:45:57;5.88;;;1.92;;
22490;SDS011;11412;50.802;4.350;2024-02-23T02:48:23;5.50;;;1.95;;
22490;SDS011;11412;50.802;4.350;2024-02-23T02:50:49;5.03;;;1.80;;
22490;SDS011;11412;50.802;4.350;2024-02-23T02:53:16;2.78;;;1.67;;
22490;SDS011;11412;50.802;4.350;2024-02-23T02:55:42;8.18;;;2.20;;
22490;SDS011;11412;50.802;4.350;2024-02-23T02:58:08;7.30;;;1.67;;
22490;SDS011;11412;50.802;4.350;2024-02-23T03:00:36;7.30;;;2.20;;
22490;SDS011;11412;50.802;4.350;2024-02-23T03:03:01;5.05;;;1.95;;
22490;SDS011;11412;50.802;4.350;2024-02-23T03:05:27;6.70;;;2.00;;
22490;SDS011;11412;50.802;4.350;2024-02-23T03:07:53;3.92;;;1.70;;
22490;SDS011;11412;50.802;4.350;2024-02-23T03:10:18;5.43;;;1.70;;
22490;SDS011;11412;50.802;4.350;2024-02-23T03:12:44;4.82;;;1.60;;
22490;SDS011;11412;50.802;4.350;2024-02-23T03:15:10;7.35;;;2.00;;
22490;SDS011;11412;50.802;4.350;2024-02-23T03:17:35;5.18;;;2.00;;
22490;SDS011;11412;50.802;4.350;2024-02-23T03:20:01;4.80;;;1.92;;
22490;SDS011;11412;50.802;4.350;2024-02-23T03:22:30;5.55;;;2.10;;
22490;SDS011;11412;50.802;4.350;2024-02-23T03:24:57;3.75;;;1.70;;
22490;SDS011;11412;50.802;4.350;2024-02-23T03:27:27;6.38;;;2.10;;
22490;SDS011;11412;50.802;4.350;2024-02-23T03:29:54;5.65;;;2.00;;
22490;SDS011;11412;50.802;4.350;2024-02-23T03:32:20;6.82;;;2.30;;
22490;SDS011;11412;50.802;4.350;2024-02-23T03:34:45;6.45;;;1.88;;
22490;SDS011;11412;50.802;4.350;2024-02-23T03:37:11;8.35;;;2.08;;
22490;SDS011;11412;50.802;4.350;2024-02-23T03:39:37;5.40;;;1.90;;
22490;SDS011;11412;50.802;4.350;2024-02-23T03:42:03;4.85;;;1.77;;
22490;SDS011;11412;50.802;4.350;2024-02-23T03:44:29;10.63;;;1.88;;
22490;SDS011;11412;50.802;4.350;2024-02-23T03:46:56;4.93;;;1.83;;
22490;SDS011;11412;50.802;4.350;2024-02-23T03:49:21;6.78;;;1.63;;
22490;SDS011;11412;50.802;4.350;2024-02-23T03:51:47;5.60;;;2.38;;
22490;SDS011;11412;50.802;4.350;2024-02-23T03:54:13;2.88;;;1.40;;
22490;SDS011;11412;50.802;4.350;2024-02-23T03:56:39;6.20;;;1.58;;
22490;SDS011;11412;50.802;4.350;2024-02-23T03:59:09;2.35;;;1.65;;
22490;SDS011;11412;50.802;4.350;2024-02-23T04:01:36;6.60;;;1.83;;
22490;SDS011;11412;50.802;4.350;2024-02-23T04:04:02;7.78;;;1.83;;
22490;SDS011;11412;50.802;4.350;2024-02-23T04:06:28;5.43;;;1.80;;
22490;SDS011;11412;50.802;4.350;2024-02-23T04:08:54;5.78;;;2.42;;
22490;SDS011;11412;50.802;4.350;2024-02-23T04:11:20;5.68;;;1.88;;
22490;SDS011;11412;50.802;4.350;2024-02-23T04:13:45;4.95;;;2.10;;
22490;SDS011;11412;50.802;4.350;2024-02-23T04:16:11;4.68;;;1.95;;
22490;SDS011;11412;50.802;4.350;2024-02-23T04:18:36;7.57;;;1.85;;
22490;SDS011;11412;50.802;4.350;2024-02-23T04:21:02;4.38;;;1.73;;
22490;SDS011;11412;50.802;4.350;2024-02-23T04:23:28;6.43;;;1.27;;
22490;SDS011;11412;50.802;4.350;2024-02-23T04:25:54;8.20;;;2.00;;
22490;SDS011;11412;50.802;4.350;2024-02-23T04:28:19;6.20;;;2.00;;
22490;SDS011;11412;50.802;4.350;2024-02-23T04:30:45;6.07;;;2.13;;
22490;SDS011;11412;50.802;4.350;2024-02-23T04:33:10;7.20;;;1.67;;
22490;SDS011;11412;50.802;4.350;2024-02-23T04:35:36;4.88;;;2.00;;
22490;SDS011;11412;50.802;4.350;2024-02-23T04:38:02;7.47;;;2.13;;
22490;SDS011;11412;50.802;4.350;2024-02-23T04:40:27;5.50;;;2.17;;
22490;SDS011;11412;50.802;4.350;2024-02-23T04:42:53;10.23;;;2.28;;
22490;SDS011;11412;50.802;4.350;2024-02-23T04:45:19;12.55;;;2.75;;
22490;SDS011;11412;50.802;4.350;2024-02-23T04:47:45;8.88;;;1.90;;
22490;SDS011;11412;50.802;4.350;2024-02-23T04:50:13;10.65;;;1.92;;
22490;SDS011;11412;50.802;4.350;2024-02-23T04:52:39;7.20;;;1.95;;
22490;SDS011;11412;50.802;4.350;2024-02-23T04:55:05;3.88;;;1.67;;
22490;SDS011;11412;50.802;4.350;2024-02-23T04:57:31;4.50;;;1.70;;
22490;SDS011;11412;50.802;4.350;2024-02-23T04:59:57;5.63;;;2.00;;
22490;SDS011;11412;50.802;4.350;2024-02-23T05:02:22;4.85;;;1.52;;
22490;SDS011;11412;50.802;4.350;2024-02-23T05:04:48;6.32;;;1.70;;
22490;SDS011;11412;50.802;4.350;2024-02-23T05:07:14;8.45;;;1.45;;
22490;SDS011;11412;50.802;4.350;2024-02-23T05:09:39;4.22;;;1.58;;
22490;SDS011;11412;50.802;4.350;2024-02-23T05:12:06;7.18;;;1.77;;
22490;SDS011;11412;50.802;4.350;2024-02-23T05:14:33;4.03;;;1.20;;
22490;SDS011;11412;50.802;4.350;2024-02-23T05:16:58;8.65;;;1.60;;
22490;SDS011;11412;50.802;4.350;2024-02-23T05:19:24;5.10;;;1.30;;
22490;SDS011;11412;50.802;4.350;2024-02-23T05:21:50;6.85;;;1.38;;
22490;SDS011;11412;50.802;4.350;2024-02-23T05:24:15;4.75;;;1.20;;
22490;SDS011;11412;50.802;4.350;2024-02-23T05:26:41;4.45;;;1.10;;
22490;SDS011;11412;50.802;4.350;2024-02-23T05:29:09;5.47;;;1.42;;
22490;SDS011;11412;50.802;4.350;2024-02-23T05:31:48;4.93;;;1.27;;
22490;SDS011;11412;50.802;4.350;2024-02-23T05:34:17;6.10;;;1.80;;
22490;SDS011;11412;50.802;4.350;2024-02-23T05:36:44;6.88;;;1.60;;
22490;SDS011;11412;50.802;4.350;2024-02-23T05:39:13;6.28;;;2.20;;
22490;SDS011;11412;50.802;4.350;2024-02-23T05:41:40;5.45;;;1.65;;
22490;SDS011;11412;50.802;4.350;2024-02-23T05:44:07;4.72;;;1.38;;
22490;SDS011;11412;50.802;4.350;2024-02-23T05:46:33;7.10;;;1.38;;
22490;SDS011;11412;50.802;4.350;2024-02-23T05:49:00;4.30;;;1.60;;
22490;SDS011;11412;50.802;4.350;2024-02-23T05:51:27;4.45;;;1.52;;
22490;SDS011;11412;50.802;4.350;2024-02-23T05:53:54;7.32;;;1.73;;
22490;SDS011;11412;50.802;4.350;2024-02-23T05:56:20;5.28;;;1.23;;
22490;SDS011;11412;50.802;4.350;2024-02-23T05:58:46;8.65;;;1.88;;
22490;SDS011;11412;50.802;4.350;2024-02-23T06:01:12;4.85;;;1.30;;
22490;SDS011;11412;50.802;4.350;2024-02-23T06:03:37;6.22;;;1.52;;
22490;SDS011;11412;50.802;4.350;2024-02-23T06:06:06;6.43;;;1.60;;
22490;SDS011;11412;50.802;4.350;2024-02-23T06:08:33;8.90;;;1.55;;
22490;SDS011;11412;50.802;4.350;2024-02-23T06:10:59;4.40;;;1.40;;
22490;SDS011;11412;50.802;4.350;2024-02-23T06:13:25;5.05;;;1.50;;
22490;SDS011;11412;50.802;4.350;2024-02-23T06:15:50;4.53;;;1.35;;
22490;SDS011;11412;50.802;4.350;2024-02-23T06:18:17;6.07;;;1.48;;
22490;SDS011;11412;50.802;4.350;2024-02-23T06:20:42;6.05;;;1.38;;
22490;SDS011;11412;50.802;4.350;2024-02-23T06:23:08;9.55;;;2.28;;
22490;SDS011;11412;50.802;4.350;2024-02-23T06:25:33;5.07;;;1.60;;
22490;SDS011;11412;50.802;4.350;2024-02-23T06:27:59;7.13;;;1.60;;
22490;SDS011;11412;50.802;4.350;2024-02-23T06:30:25;5.13;;;1.75;;
22490;SDS011;11412;50.802;4.350;2024-02-23T06:32:50;4.07;;;1.77;;
22490;SDS011;11412;50.802;4.350;2024-02-23T06:35:16;4.45;;;1.00;;
22490;SDS011;11412;50.802;4.350;2024-02-23T06:37:42;8.82;;;1.75;;
22490;SDS011;11412;50.802;4.350;2024-02-23T06:40:08;7.05;;;1.77;;
22490;SDS011;11412;50.802;4.350;2024-02-23T06:42:33;5.63;;;1.70;;
22490;SDS011;11412;50.802;4.350;2024-02-23T06:44:59;24.17;;;3.35;;
22490;SDS011;11412;50.802;4.350;2024-02-23T06:47:26;9.70;;;1.75;;
22490;SDS011;11412;50.802;4.350;2024-02-23T06:49:51;13.30;;;2.55;;
22490;SDS011;11412;50.802;4.350;2024-02-23T06:52:17;8.63;;;2.00;;
22490;SDS011;11412;50.802;4.350;2024-02-23T06:54:43;6.78;;;1.60;;
22490;SDS011;11412;50.802;4.350;2024-02-23T06:57:09;8.63;;;1.70;;
22490;SDS011;11412;50.802;4.350;2024-02-23T06:59:34;8.35;;;1.60;;
22490;SDS011;11412;50.802;4.350;2024-02-23T07:02:00;18.60;;;3.33;;
22490;SDS011;11412;50.802;4.350;2024-02-23T07:04:26;31.05;;;3.28;;
22490;SDS011;11412;50.802;4.350;2024-02-23T07:06:54;6.28;;;1.40;;
22490;SDS011;11412;50.802;4.350;2024-02-23T07:09:20;4.25;;;1.40;;
22490;SDS011;11412;50.802;4.350;2024-02-23T07:11:46;10.20;;;2.13;;
22490;SDS011;11412;50.802;4.350;2024-02-23T07:14:12;8.23;;;1.50;;
22490;SDS011;11412;50.802;4.350;2024-02-23T07:16:39;7.68;;;2.47;;
22490;SDS011;11412;50.802;4.350;2024-02-23T07:19:06;9.40;;;1.45;;
22490;SDS011;11412;50.802;4.350;2024-02-23T07:21:32;6.10;;;1.75;;
22490;SDS011;11412;50.802;4.350;2024-02-23T07:23:58;7.75;;;1.73;;
22490;SDS011;11412;50.802;4.350;2024-02-23T07:26:24;9.38;;;2.05;;
22490;SDS011;11412;50.802;4.350;2024-02-23T07:28:50;9.45;;;2.15;;
22490;SDS011;11412;50.802;4.350;2024-02-23T07:31:16;8.70;;;1.33;;
22490;SDS011;11412;50.802;4.350;2024-02-23T07:33:42;6.55;;;1.58;;
22490;SDS011;11412;50.802;4.350;2024-02-23T07:36:13;4.70;;;1.35;;
22490;SDS011;11412;50.802;4.350;2024-02-23T07:38:42;7.78;;;2.08;;
22490;SDS011;11412;50.802;4.350;2024-02-23T07:41:09;8.57;;;1.52;;
22490;SDS011;11412;50.802;4.350;2024-02-23T07:43:36;6.30;;;1.45;;
22490;SDS011;11412;50.802;4.350;2024-02-23T07:46:01;7.95;;;1.73;;
22490;SDS011;11412;50.802;4.350;2024-02-23T07:48:27;7.18;;;1.50;;
22490;SDS011;11412;50.802;4.350;2024-02-23T07:50:53;6.03;;;1.75;;
22490;SDS011;11412;50.802;4.350;2024-02-23T07:53:19;7.55;;;1.88;;
22490;SDS011;11412;50.802;4.350;2024-02-23T07:55:44;9.05;;;1.70;;
22490;SDS011;11412;50.802;4.350;2024-02-23T07:58:10;6.60;;;1.35;;
22490;SDS011;11412;50.802;4.350;2024-02-23T08:00:35;5.22;;;1.27;;
22490;SDS011;11412;50.802;4.350;2024-02-23T08:03:03;12.07;;;2.05;;
22490;SDS011;11412;50.802;4.350;2024-02-23T08:05:29;8.65;;;1.85;;
22490;SDS011;11412;50.802;4.350;2024-02-23T08:07:55;11.25;;;1.80;;
22490;SDS011;11412;50.802;4.350;2024-02-23T08:10:20;8.68;;;1.70;;
22490;SDS011;11412;50.802;4.350;2024-02-23T08:12:47;8.18;;;1.80;;
22490;SDS011;11412;50.802;4.350;2024-02-23T08:15:12;4.95;;;1.50;;
22490;SDS011;11412;50.802;4.350;2024-02-23T08:17:38;7.55;;;1.88;;
22490;SDS011;11412;50.802;4.350;2024-02-23T08:20:04;5.18;;;1.77;;
22490;SDS011;11412;50.802;4.350;2024-02-23T08:22:30;5.68;;;1.40;;
22490;SDS011;11412;50.802;4.350;2024-02-23T08:24:56;5.82;;;1.63;;
22490;SDS011;11412;50.802;4.350;2024-02-23T08:27:22;6.18;;;2.08;;
22490;SDS011;11412;50.802;4.350;2024-02-23T08:29:47;5.10;;;1.67;;
22490;SDS011;11412;50.802;4.350;2024-02-23T08:32:13;7.85;;;2.05;;
22490;SDS011;11412;50.802;4.350;2024-02-23T08:34:39;8.57;;;1.70;;
22490;SDS011;11412;50.802;4.350;2024-02-23T08:37:04;6.80;;;1.90;;
22490;SDS011;11412;50.802;4.350;2024-02-23T08:39:30;5.28;;;1.58;;
22490;SDS011;11412;50.802;4.350;2024-02-23T08:41:56;8.98;;;1.90;;
22490;SDS011;11412;50.802;4.350;2024-02-23T08:44:21;6.43;;;1.70;;
22490;SDS011;11412;50.802;4.350;2024-02-23T08:46:47;7.55;;;2.05;;
22490;SDS011;11412;50.802;4.350;2024-02-23T08:49:13;8.32;;;1.95;;
22490;SDS011;11412;50.802;4.350;2024-02-23T08:51:39;5.60;;;1.70;;
22490;SDS011;11412;50.802;4.350;2024-02-23T08:54:05;4.90;;;2.33;;
22490;SDS011;11412;50.802;4.350;2024-02-23T08:56:36;7.80;;;3.20;;
22490;SDS011;11412;50.802;4.350;2024-02-23T08:59:04;5.60;;;2.13;;
22490;SDS011;11412;50.802;4.350;2024-02-23T09:01:29;6.72;;;2.00;;
22490;SDS011;11412;50.802;4.350;2024-02-23T09:03:55;6.72;;;2.15;;
22490;SDS011;11412;50.802;4.350;2024-02-23T09:06:21;5.60;;;1.83;;
22490;SDS011;11412;50.802;4.350;2024-02-23T09:08:46;4.28;;;1.40;;
22490;SDS011;11412;50.802;4.350;2024-02-23T09:11:12;5.25;;;1.38;;
22490;SDS011;11412;50.802;4.350;2024-02-23T09:13:39;7.32;;;1.83;;
22490;SDS011;11412;50.802;4.350;2024-02-23T09:16:06;4.40;;;1.42;;
22490;SDS011;11412;50.802;4.350;2024-02-23T09:18:32;9.90;;;1.90;;
22490;SDS011;11412;50.802;4.350;2024-02-23T09:20:59;10.80;;;2.38;;
22490;SDS011;11412;50.802;4.350;2024-02-23T09:23:24;11.82;;;2.00;;
22490;SDS011;11412;50.802;4.350;2024-02-23T09:25:50;8.25;;;2.05;;
22490;SDS011;11412;50.802;4.350;2024-02-23T09:28:16;9.43;;;2.15;;
22490;SDS011;11412;50.802;4.350;2024-02-23T09:30:41;9.23;;;1.98;;
22490;SDS011;11412;50.802;4.350;2024-02-23T09:33:07;8.27;;;2.17;;
22490;SDS011;11412;50.802;4.350;2024-02-23T09:35:33;6.43;;;1.52;;
22490;SDS011;11412;50.802;4.350;2024-02-23T09:37:59;9.30;;;1.73;;
22490;SDS011;11412;50.802;4.350;2024-02-23T09:40:25;5.22;;;1.33;;
22490;SDS011;11412;50.802;4.350;2024-02-23T09:42:54;6.60;;;1.50;;
22490;SDS011;11412;50.802;4.350;2024-02-23T09:45:22;5.82;;;2.10;;
22490;SDS011;11412;50.802;4.350;2024-02-23T09:47:49;4.43;;;1.85;;
22490;SDS011;11412;50.802;4.350;2024-02-23T09:50:16;6.78;;;1.70;;
22490;SDS011;11412;50.802;4.350;2024-02-23T09:52:44;4.03;;;1.50;;
22490;SDS011;11412;50.802;4.350;2024-02-23T09:55:12;8.18;;;2.10;;
22490;SDS011;11412;50.802;4.350;2024-02-23T09:57:37;5.60;;;1.85;;
22490;SDS011;11412;50.802;4.350;2024-02-23T10:00:04;7.25;;;2.10;;
22490;SDS011;11412;50.802;4.350;2024-02-23T10:02:31;6.93;;;2.00;;
22490;SDS011;11412;50.802;4.350;2024-02-23T10:04:57;4.97;;;2.22;;
22490;SDS011;11412;50.802;4.350;2024-02-23T10:07:26;4.43;;;2.20;;
22490;SDS011;11412;50.802;4.350;2024-02-23T10:09:52;7.45;;;2.63;;
22490;SDS011;11412;50.802;4.350;2024-02-23T10:12:18;4.25;;;2.30;;
22490;SDS011;11412;50.802;4.350;2024-02-23T10:14:44;6.82;;;3.10;;
22490;SDS011;11412;50.802;4.350;2024-02-23T10:17:09;6.35;;;2.35;;
22490;SDS011;11412;50.802;4.350;2024-02-23T10:19:35;7.35;;;2.40;;
22490;SDS011;11412;50.802;4.350;2024-02-23T10:22:00;4.53;;;1.48;;
22490;SDS011;11412;50.802;4.350;2024-02-23T10:24:26;7.85;;;2.03;;
22490;SDS011;11412;50.802;4.350;2024-02-23T10:26:52;8.00;;;2.92;;
22490;SDS011;11412;50.802;4.350;2024-02-23T10:29:18;5.05;;;1.77;;
22490;SDS011;11412;50.802;4.350;2024-02-23T10:31:44;10.23;;;2.00;;
22490;SDS011;11412;50.802;4.350;2024-02-23T10:34:14;6.80;;;1.42;;
22490;SDS011;11412;50.802;4.350;2024-02-23T10:36:44;15.73;;;2.88;;
22490;SDS011;11412;50.802;4.350;2024-02-23T10:39:15;6.35;;;1.67;;
22490;SDS011;11412;50.802;4.350;2024-02-23T10:41:44;6.72;;;2.00;;
22490;SDS011;11412;50.802;4.350;2024-02-23T10:44:14;3.97;;;1.23;;
22490;SDS011;11412;50.802;4.350;2024-02-23T10:46:43;5.28;;;1.38;;
22490;SDS011;11412;50.802;4.350;2024-02-23T10:49:09;7.32;;;1.73;;
22490;SDS011;11412;50.802;4.350;2024-02-23T10:51:37;3.50;;;1.23;;
22490;SDS011;11412;50.802;4.350;2024-02-23T10:54:04;4.00;;;2.00;;
22490;SDS011;11412;50.802;4.350;2024-02-23T10:56:31;6.13;;;1.80;;
22490;SDS011;11412;50.802;4.350;2024-02-23T10:58:57;8.43;;;1.70;;
22490;SDS011;11412;50.802;4.350;2024-02-23T11:01:23;4.85;;;1.75;;
22490;SDS011;11412;50.802;4.350;2024-02-23T11:03:50;5.68;;;1.30;;
22490;SDS011;11412;50.802;4.350;2024-02-23T11:06:18;6.22;;;1.67;;
22490;SDS011;11412;50.802;4.350;2024-02-23T11:08:46;10.35;;;1.88;;
22490;SDS011;11412;50.802;4.350;2024-02-23T11:11:18;6.03;;;1.65;;
22490;SDS011;11412;50.802;4.350;2024-02-23T11:13:44;3.90;;;1.40;;
22490;SDS011;11412;50.802;4.350;2024-02-23T11:16:21;3.08;;;1.42;;
22490;SDS011;11412;50.802;4.350;2024-02-23T11:19:00;4.45;;;1.80;;
22490;SDS011;11412;50.802;4.350;2024-02-23T11:21:33;8.68;;;1.60;;
22490;SDS011;11412;50.802;4.350;2024-02-23T11:24:02;5.95;;;1.98;;
22490;SDS011;11412;50.802;4.350;2024-02-23T11:26:28;8.60;;;2.10;;
22490;SDS011;11412;50.802;4.350;2024-02-23T11:28:54;4.85;;;1.80;;
22490;SDS011;11412;50.802;4.350;2024-02-23T11:31:23;5.80;;;2.08;;
22490;SDS011;11412;50.802;4.350;2024-02-23T11:33:50;5.63;;;2.10;;
22490;SDS011;11412;50.802;4.350;2024-02-23T11:38:52;4.68;;;2.15;;
22490;SDS011;11412;50.802;4.350;2024-02-23T11:41:20;6.78;;;1.95;;
22490;SDS011;11412;50.802;4.350;2024-02-23T11:43:47;3.65;;;1.42;;
22490;SDS011;11412;50.802;4.350;2024-02-23T11:46:14;4.65;;;1.45;;
22490;SDS011;11412;50.802;4.350;2024-02-23T11:48:41;4.78;;;1.52;;
22490;SDS011;11412;50.802;4.350;2024-02-23T11:51:08;5.10;;;2.35;;
22490;SDS011;11412;50.802;4.350;2024-02-23T11:53:36;6.20;;;1.95;;
22490;SDS011;11412;50.802;4.350;2024-02-23T11:56:04;7.03;;;2.50;;
22490;SDS011;11412;50.802;4.350;2024-02-23T11:58:30;6.30;;;2.42;;
22490;SDS011;11412;50.802;4.350;2024-02-23T12:01:02;5.07;;;1.70;;
22490;SDS011;11412;50.802;4.350;2024-02-23T12:03:29;6.72;;;2.10;;
22490;SDS011;11412;50.802;4.350;2024-02-23T12:05:58;5.38;;;1.98;;
22490;SDS011;11412;50.802;4.350;2024-02-23T12:08:31;3.85;;;1.80;;
22490;SDS011;11412;50.802;4.350;2024-02-23T12:11:03;10.38;;;2.25;;
22490;SDS011;11412;50.802;4.350;2024-02-23T12:13:34;3.90;;;2.65;;
22490;SDS011;11412;50.802;4.350;2024-02-23T12:16:00;7.32;;;2.60;;
22490;SDS011;11412;50.802;4.350;2024-02-23T12:18:26;4.47;;;2.05;;
22490;SDS011;11412;50.802;4.350;2024-02-23T12:20:52;5.20;;;1.98;;
22490;SDS011;11412;50.802;4.350;2024-02-23T12:23:18;3.92;;;2.22;;
22490;SDS011;11412;50.802;4.350;2024-02-23T12:25:56;5.15;;;2.30;;
22490;SDS011;11412;50.802;4.350;2024-02-23T12:28:22;5.22;;;2.03;;
22490;SDS011;11412;50.802;4.350;2024-02-23T12:30:58;5.28;;;2.05;;
22490;SDS011;11412;50.802;4.350;2024-02-23T12:33:28;4.53;;;1.50;;
22490;SDS011;11412;50.802;4.350;2024-02-23T12:35:58;3.38;;;1.70;;
22490;SDS011;11412;50.802;4.350;2024-02-23T12:38:24;4.40;;;2.00;;
22490;SDS011;11412;50.802;4.350;2024-02-23T12:40:50;6.00;;;1.60;;
22490;SDS011;11412;50.802;4.350;2024-02-23T12:43:16;4.75;;;1.90;;
22490;SDS011;11412;50.802;4.350;2024-02-23T12:45:42;3.75;;;2.10;;
22490;SDS011;11412;50.802;4.350;2024-02-23T12:48:14;4.70;;;2.00;;
22490;SDS011;11412;50.802;4.350;2024-02-23T12:50:43;4.07;;;1.20;;
22490;SDS011;11412;50.802;4.350;2024-02-23T12:53:11;3.03;;;1.20;;
22490;SDS011;11412;50.802;4.350;2024-02-23T12:56:06;4.10;;;1.58;;
22490;SDS011;11412;50.802;4.350;2024-02-23T12:58:36;5.67;;;1.33;;
22490;SDS011;11412;50.802;4.350;2024-02-23T13:01:03;9.27;;;1.30;;
22490;SDS011;11412;50.802;4.350;2024-02-23T13:03:29;5.72;;;1.55;;
22490;SDS011;11412;50.802;4.350;2024-02-23T13:05:56;7.15;;;1.70;;
22490;SDS011;11412;50.802;4.350;2024-02-23T13:08:23;2.40;;;1.15;;
22490;SDS011;11412;50.802;4.350;2024-02-23T13:10:50;1.65;;;0.80;;
22490;SDS011;11412;50.802;4.350;2024-02-23T13:13:16;5.90;;;1.23;;
22490;SDS011;11412;50.802;4.350;2024-02-23T13:15:46;3.50;;;1.20;;
22490;SDS011;11412;50.802;4.350;2024-02-23T13:18:13;7.63;;;1.20;;
22490;SDS011;11412;50.802;4.350;2024-02-23T13:20:39;3.88;;;1.25;;
22490;SDS011;11412;50.802;4.350;2024-02-23T13:23:08;8.68;;;1.27;;
22490;SDS011;11412;50.802;4.350;2024-02-23T13:25:36;2.88;;;0.98;;
22490;SDS011;11412;50.802;4.350;2024-02-23T13:28:03;3.92;;;1.20;;
22490;SDS011;11412;50.802;4.350;2024-02-23T13:30:30;3.33;;;1.35;;
22490;SDS011;11412;50.802;4.350;2024-02-23T13:32:56;6.45;;;1.23;;
22490;SDS011;11412;50.802;4.350;2024-02-23T13:35:22;7.28;;;1.48;;
22490;SDS011;11412;50.802;4.350;2024-02-23T13:37:48;3.35;;;1.23;;
22490;SDS011;11412;50.802;4.350;2024-02-23T13:40:14;6.57;;;1.30;;
22490;SDS011;11412;50.802;4.350;2024-02-23T13:42:40;5.32;;;1.33;;
22490;SDS011;11412;50.802;4.350;2024-02-23T13:45:06;5.90;;;1.55;;
22490;SDS011;11412;50.802;4.350;2024-02-23T13:47:33;4.88;;;1.42;;
22490;SDS011;11412;50.802;4.350;2024-02-23T13:49:59;5.03;;;1.15;;
22490;SDS011;11412;50.802;4.350;2024-02-23T13:52:25;2.15;;;0.88;;
22490;SDS011;11412;50.802;4.350;2024-02-23T13:54:51;2.58;;;1.23;;
22490;SDS011;11412;50.802;4.350;2024-02-23T13:57:17;4.18;;;1.05;;
22490;SDS011;11412;50.802;4.350;2024-02-23T13:59:42;10.73;;;1.52;;
22490;SDS011;11412;50.802;4.350;2024-02-23T14:02:08;5.85;;;0.98;;
22490;SDS011;11412;50.802;4.350;2024-02-23T14:04:34;4.45;;;1.10;;
22490;SDS011;11412;50.802;4.350;2024-02-23T14:07:02;3.75;;;1.00;;
22490;SDS011;11412;50.802;4.350;2024-02-23T14:09:29;2.08;;;0.90;;
22490;SDS011;11412;50.802;4.350;2024-02-23T14:11:55;5.05;;;1.27;;
22490;SDS011;11412;50.802;4.350;2024-02-23T14:14:21;4.82;;;1.45;;
22490;SDS011;11412;50.802;4.350;2024-02-23T14:16:47;3.97;;;1.00;;
22490;SDS011;11412;50.802;4.350;2024-02-23T14:19:13;3.95;;;1.42;;
22490;SDS011;11412;50.802;4.350;2024-02-23T14:21:39;5.25;;;1.13;;
22490;SDS011;11412;50.802;4.350;2024-02-23T14:24:04;2.85;;;1.00;;
22490;SDS011;11412;50.802;4.350;2024-02-23T14:26:30;4.07;;;1.25;;
22490;SDS011;11412;50.802;4.350;2024-02-23T14:28:56;5.03;;;1.17;;
22490;SDS011;11412;50.802;4.350;2024-02-23T14:31:22;2.90;;;1.02;;
22490;SDS011;11412;50.802;4.350;2024-02-23T14:33:48;1.70;;;0.80;;
22490;SDS011;11412;50.802;4.350;2024-02-23T14:36:16;5.07;;;1.40;;
22490;SDS011;11412;50.802;4.350;2024-02-23T14:38:42;1.77;;;0.90;;
22490;SDS011;11412;50.802;4.350;2024-02-23T14:41:08;2.72;;;0.70;;
22490;SDS011;11412;50.802;4.350;2024-02-23T14:43:35;0.65;;;0.65;;
22490;SDS011;11412;50.802;4.350;2024-02-23T14:46:01;1.85;;;0.55;;
22490;SDS011;11412;50.802;4.350;2024-02-23T14:48:27;3.47;;;0.80;;